Observations for ALICANTE EL ALTET, Spain (LEAL)

LEAL 280500Z 26008KT 230V300 CAVOK 26/10 Q1009 NOSIG
LEAL 280430Z 27010KT CAVOK 25/11 Q1009 NOSIG
LEAL 280400Z 27013KT CAVOK 26/11 Q1008 NOSIG
LEAL 280330Z 28012KT CAVOK 26/11 Q1008 NOSIG
LEAL 280300Z 26008KT CAVOK 25/10 Q1008 NOSIG
LEAL 280230Z 29008KT CAVOK 25/09 Q1008 NOSIG
LEAL 280200Z 28008KT CAVOK 25/09 Q1008 NOSIG
LEAL 280130Z 29009KT CAVOK 28/10 Q1008 NOSIG
LEAL 280100Z 28009KT 250V310 CAVOK 28/09 Q1008 NOSIG
LEAL 280030Z 29010KT 260V320 CAVOK 29/09 Q1008 NOSIG
LEAL 280000Z 29005KT 240V330 CAVOK 28/08 Q1008 NOSIG
LEAL 272330Z 28009KT CAVOK 29/08 Q1008 NOSIG
LEAL 272300Z 25007KT 230V320 CAVOK 28/09 Q1008 NOSIG
LEAL 272230Z 28007KT 250V320 CAVOK 28/09 Q1008 NOSIG
LEAL 272200Z 27005KT CAVOK 24/21 Q1007 NOSIG
LEAL 272130Z VRB02KT CAVOK 24/22 Q1007 NOSIG
LEAL 272100Z VRB01KT CAVOK 25/22 Q1007 NOSIG
LEAL 272030Z VRB02KT CAVOK 26/22 Q1006 NOSIG
LEAL 272000Z VRB02KT CAVOK 26/22 Q1005 NOSIG
LEAL 271930Z VRB01KT CAVOK 27/21 Q1005 NOSIG
LEAL 271900Z VRB02KT CAVOK 28/21 Q1005 NOSIG
LEAL 271830Z 08003KT 060V120 CAVOK 28/21 Q1005 NOSIG
LEAL 271800Z 09003KT 040V130 CAVOK 29/21 Q1005 NOSIG
LEAL 271730Z 10005KT 070V150 CAVOK 29/21 Q1005 NOSIG
LEAL 271700Z 07005KT 030V110 CAVOK 29/21 Q1005 NOSIG
LEAL 271630Z 07005KT 030V150 CAVOK 29/21 Q1005 NOSIG
LEAL 271600Z 06005KT 020V120 CAVOK 29/22 Q1006 NOSIG
LEAL 271530Z 07005KT 020V150 9999 FEW008 29/22 Q1006 NOSIG  
LEAL 271500Z 13006KT 080V170 9999 FEW008 FEW025CB 28/23 Q1006 TEMPO 4000 TSRA   
LEAL 271430Z 10004KT 040V180 9999 VCTS FEW016 FEW025CB 27/23 Q1007 TEMPO 4000 TSRA  
LEAL 271400Z 06005KT 030V100 9999 VCTS FEW016 FEW025CB 27/23 Q1007 TEMPO 4000 TSRA  
LEAL 271330Z 11006KT 070V150 9999 FEW016 FEW025CB 27/23 Q1007 RESHRA TEMPO 4000 TSRA
LEAL 271303Z 11005KT 050V180 9999 SHRA FEW025CB 28/23 Q1008 TEMPO 4000 TSRA
LEAL 271300Z 10004KT 050V180 9999 SHRA FEW025CB 28/22 Q1008 TEMPO 4000 TSRA 
LEAL 271230Z 10006KT 070V150 9999 FEW067 28/22 Q1008 NOSIG  
LEAL 271252Z 11004KT 070V200 9999 VCTS FEW025CB 28/22 Q1008 NOSIG
LEAL 271200Z 09005KT 050V120 9999 FEW026 27/23 Q1008 NOSIG  
LEAL 271130Z 09006KT 060V150 9999 -RA FEW014 SCT058 27/23 Q1008 NOSIG   
LEAL 271100Z 10005KT 070V140 9999 FEW014 27/23 Q1009 NOSIG  
LEAL 271030Z 07004KT 020V110 9999 FEW016 27/23 Q1009 NOSIG  
LEAL 271000Z 10007KT 060V140 9999 FEW018 27/23 Q1009 NOSIG  
LEAL 270930Z 09004KT 060V130 9999 -RA FEW022 SCT054 27/22 Q1009 NOSIG   
LEAL 270900Z 11006KT 060V160 9999 FEW012 27/22 Q1009 NOSIG  
LEAL 270830Z 11004KT 030V160 9999 FEW012 28/23 Q1009 NOSIG  
LEAL 270800Z VRB02KT 9999 FEW012 27/22 Q1009 NOSIG  
LEAL 270730Z 05004KT 010V080 9999 FEW012 26/22 Q1009 NOSIG  
LEAL 270700Z 03005KT 340V060 9999 SCT010 25/22 Q1009 NOSIG  
LEAL 270630Z 03005KT 350V060 9999 FEW008 SCT010 25/22 Q1009 BECMG NSC   
LEAL 270600Z 03004KT 350V060 9000 SCT008 SCT010 24/22 Q1009 BECMG NSC   
LEAL 270530Z 01004KT 350V060 9000 SCT007 SCT009 24/21 Q1008 BECMG NSC   
LEAL 270500Z 03004KT 350V070 9000 BKN007 23/20 Q1008 BECMG NSC  
LEAL 270430Z 36005KT 9000 FEW008 23/21 Q1008 NOSIG